createdAt,value
2016-07-17T00:00:44.317Z,0
2016-07-17T00:01:44.309Z,0
2016-07-17T00:02:44.308Z,0
2016-07-17T00:03:44.304Z,0
2016-07-17T00:04:44.309Z,0
2016-07-17T00:05:44.308Z,0
2016-07-17T00:06:44.308Z,0
2016-07-17T00:07:44.309Z,0
2016-07-17T00:08:44.316Z,0
2016-07-17T00:09:44.309Z,0
2016-07-17T00:10:44.312Z,0
2016-07-17T00:11:44.308Z,0
2016-07-17T00:12:44.308Z,0
2016-07-17T00:13:44.304Z,0
2016-07-17T00:14:44.310Z,0
2016-07-17T00:15:44.313Z,0
2016-07-17T00:16:44.305Z,0
2016-07-17T00:17:44.301Z,0
2016-07-17T00:18:44.317Z,0
2016-07-17T00:19:44.304Z,0
2016-07-17T00:20:44.296Z,0
2016-07-17T00:21:44.305Z,0
2016-07-17T00:22:44.305Z,0
2016-07-17T00:23:44.300Z,0
2016-07-17T00:24:44.307Z,0
2016-07-17T00:25:44.305Z,0
2016-07-17T00:26:44.305Z,0
2016-07-17T00:27:44.300Z,0
2016-07-17T00:28:43.589Z,0
2016-07-17T00:29:44.301Z,0
2016-07-17T00:30:44.309Z,0
2016-07-17T00:31:44.305Z,0
2016-07-17T00:32:44.297Z,0
2016-07-17T00:33:44.313Z,0
2016-07-17T00:34:43.589Z,0
2016-07-17T00:35:44.305Z,0
2016-07-17T00:36:44.306Z,0
2016-07-17T00:37:44.301Z,0
2016-07-17T00:38:44.302Z,0
2016-07-17T00:39:44.301Z,0
2016-07-17T00:40:44.301Z,0
2016-07-17T00:41:44.305Z,0
2016-07-17T00:42:44.313Z,0
2016-07-17T00:43:44.298Z,0
2016-07-17T00:44:44.301Z,0
2016-07-17T00:45:44.305Z,0
2016-07-17T00:46:44.302Z,0
2016-07-17T00:47:44.305Z,0
2016-07-17T00:48:44.302Z,0
2016-07-17T00:49:44.298Z,0
2016-07-17T00:50:44.297Z,0
2016-07-17T00:51:44.301Z,0
2016-07-17T00:52:44.301Z,0
2016-07-17T00:53:44.302Z,0
2016-07-17T00:54:44.298Z,0
2016-07-17T00:55:44.297Z,0
2016-07-17T00:56:44.301Z,0
2016-07-17T00:57:44.293Z,0
2016-07-17T00:58:44.307Z,0
2016-07-17T00:59:44.294Z,0
2016-07-17T01:00:44.298Z,0
2016-07-17T01:01:44.299Z,0
2016-07-17T01:02:44.297Z,0
2016-07-17T01:03:44.294Z,0
2016-07-17T01:04:44.294Z,0
2016-07-17T01:05:44.298Z,0
2016-07-17T01:06:44.294Z,0
2016-07-17T01:07:44.298Z,0
2016-07-17T01:08:44.298Z,0
2016-07-17T01:09:44.293Z,0
2016-07-17T01:10:44.298Z,0
2016-07-17T01:11:44.310Z,0
2016-07-17T01:12:44.297Z,0
2016-07-17T01:13:44.294Z,0
2016-07-17T01:14:44.293Z,0
2016-07-17T01:15:44.306Z,0
2016-07-17T01:16:44.298Z,0
2016-07-17T01:17:44.298Z,0
2016-07-17T01:18:44.294Z,0
2016-07-17T01:19:44.294Z,0
2016-07-17T01:20:44.294Z,0
2016-07-17T01:21:44.294Z,0
2016-07-17T01:22:44.295Z,0
2016-07-17T01:23:44.294Z,0
2016-07-17T01:24:44.294Z,0
2016-07-17T01:25:44.294Z,0
2016-07-17T01:26:44.295Z,0
2016-07-17T01:27:44.294Z,0
2016-07-17T01:28:44.295Z,0
2016-07-17T01:29:44.294Z,0
2016-07-17T01:30:44.295Z,0
2016-07-17T01:31:44.295Z,0
2016-07-17T01:32:44.294Z,0
2016-07-17T01:33:44.291Z,0
2016-07-17T01:34:44.291Z,0
2016-07-17T01:35:44.290Z,0
2016-07-17T01:36:44.295Z,0
2016-07-17T01:37:44.291Z,0
2016-07-17T01:38:44.302Z,0
2016-07-17T01:39:44.302Z,0
2016-07-17T01:40:44.290Z,0
2016-07-17T01:41:44.291Z,0
2016-07-17T01:42:43.670Z,0
2016-07-17T01:43:44.287Z,0
2016-07-17T01:44:44.288Z,0
2016-07-17T01:45:44.287Z,0
2016-07-17T01:46:44.292Z,0
2016-07-17T01:47:44.295Z,0
2016-07-17T01:48:44.291Z,0
2016-07-17T01:49:44.287Z,0
2016-07-17T01:50:44.288Z,0
2016-07-17T01:51:44.283Z,0
2016-07-17T01:52:44.291Z,0
2016-07-17T01:53:44.292Z,0
2016-07-17T01:54:44.287Z,0
2016-07-17T01:55:44.287Z,0
2016-07-17T01:56:44.287Z,0
2016-07-17T01:57:44.287Z,0
2016-07-17T01:58:44.287Z,0
2016-07-17T01:59:44.283Z,0
2016-07-17T02:00:43.559Z,0
2016-07-17T02:01:44.284Z,0
2016-07-17T02:02:43.560Z,0
2016-07-17T02:03:44.283Z,0
2016-07-17T02:04:44.289Z,0
2016-07-17T02:05:44.284Z,0
2016-07-17T02:06:43.564Z,0
2016-07-17T02:07:44.284Z,0
2016-07-17T02:08:44.284Z,0
2016-07-17T02:09:44.285Z,0
2016-07-17T02:10:44.281Z,0
2016-07-17T02:11:44.272Z,0
2016-07-17T02:12:44.301Z,0
2016-07-17T02:13:44.281Z,0
2016-07-17T02:14:44.281Z,0
2016-07-17T02:15:44.281Z,0
2016-07-17T02:16:44.276Z,0
2016-07-17T02:17:44.287Z,0
2016-07-17T02:18:44.280Z,0
2016-07-17T02:19:44.285Z,0
2016-07-17T02:20:44.276Z,0
2016-07-17T02:21:44.276Z,0
2016-07-17T02:22:44.268Z,0
2016-07-17T02:23:43.556Z,0
2016-07-17T02:24:44.285Z,0
2016-07-17T02:25:43.552Z,0
2016-07-17T02:26:44.290Z,0
2016-07-17T02:27:44.289Z,0
2016-07-17T02:28:44.276Z,0
2016-07-17T02:29:44.290Z,0
2016-07-17T02:30:44.282Z,0
2016-07-17T02:31:44.277Z,0
2016-07-17T02:32:44.273Z,0
2016-07-17T02:33:44.269Z,0
2016-07-17T02:34:44.274Z,0
2016-07-17T02:35:44.277Z,0
2016-07-17T02:36:44.274Z,0
2016-07-17T02:37:44.265Z,0
2016-07-17T02:38:44.270Z,0
2016-07-17T02:39:44.267Z,0
2016-07-17T02:40:44.282Z,0
2016-07-17T02:41:44.274Z,0
2016-07-17T02:42:44.278Z,0
2016-07-17T02:43:44.269Z,0
2016-07-17T02:44:44.269Z,0
2016-07-17T02:45:44.274Z,0
2016-07-17T02:46:44.264Z,0
2016-07-17T02:47:44.270Z,0
2016-07-17T02:48:44.270Z,0
2016-07-17T02:49:44.265Z,0
2016-07-17T02:50:43.549Z,0
2016-07-17T02:51:44.266Z,0
2016-07-17T02:52:44.270Z,0
2016-07-17T02:53:44.270Z,0
2016-07-17T02:54:44.270Z,0
2016-07-17T02:55:44.267Z,0
2016-07-17T02:56:44.261Z,0
2016-07-17T02:57:44.266Z,0
2016-07-17T02:58:43.542Z,0
2016-07-17T02:59:44.282Z,0
2016-07-17T03:00:44.262Z,0
2016-07-17T03:01:44.282Z,0
2016-07-17T03:02:44.254Z,0
2016-07-17T03:03:44.259Z,0
2016-07-17T03:04:44.254Z,0
2016-07-17T03:05:44.262Z,0
2016-07-17T03:06:44.258Z,0
2016-07-17T03:07:43.538Z,0
2016-07-17T03:08:44.270Z,0
2016-07-17T03:09:44.267Z,0
2016-07-17T03:10:43.542Z,0
2016-07-17T03:11:44.262Z,0
2016-07-17T03:12:44.259Z,0
2016-07-17T03:13:44.258Z,0
2016-07-17T03:14:44.258Z,0
2016-07-17T03:15:44.258Z,0
2016-07-17T03:16:44.254Z,0
2016-07-17T03:17:43.534Z,0
2016-07-17T03:18:44.258Z,0
2016-07-17T03:19:44.249Z,0
2016-07-17T03:20:44.254Z,0
2016-07-17T03:21:44.249Z,0
2016-07-17T03:22:44.254Z,0
2016-07-17T03:23:44.259Z,0
2016-07-17T03:24:44.254Z,0
2016-07-17T03:25:44.255Z,0
2016-07-17T03:26:44.254Z,0
2016-07-17T03:27:44.255Z,0
2016-07-17T03:28:44.255Z,0
2016-07-17T03:29:44.251Z,0
2016-07-17T03:30:44.251Z,0
2016-07-17T03:31:44.250Z,0
2016-07-17T03:32:44.251Z,0
2016-07-17T03:33:44.250Z,0
2016-07-17T03:34:44.251Z,0
2016-07-17T03:35:44.250Z,0
2016-07-17T03:36:44.262Z,0
2016-07-17T03:37:44.260Z,0
2016-07-17T03:38:44.250Z,0
2016-07-17T03:39:44.247Z,0
2016-07-17T03:40:44.243Z,0
2016-07-17T03:41:44.250Z,0
2016-07-17T03:42:44.295Z,0
2016-07-17T03:43:43.531Z,0
2016-07-17T03:44:44.246Z,0
2016-07-17T03:45:44.238Z,0
2016-07-17T03:46:44.243Z,0
2016-07-17T03:47:44.243Z,4
2016-07-17T03:48:44.238Z,4
2016-07-17T03:49:44.242Z,4
2016-07-17T03:50:44.245Z,4
2016-07-17T03:51:44.239Z,4
2016-07-17T03:52:44.235Z,4
2016-07-17T03:53:44.239Z,4
2016-07-17T03:54:44.249Z,4
2016-07-17T03:55:44.239Z,0
2016-07-17T03:56:44.240Z,0
2016-07-17T03:57:44.239Z,0
2016-07-17T03:58:44.252Z,4
2016-07-17T03:59:44.252Z,4
2016-07-17T04:00:44.239Z,4
2016-07-17T04:01:44.232Z,4
2016-07-17T04:02:44.235Z,4
2016-07-17T04:03:44.232Z,4
2016-07-17T04:04:43.515Z,4
2016-07-17T04:05:44.239Z,8
2016-07-17T04:06:44.239Z,8
2016-07-17T04:07:44.231Z,4
2016-07-17T04:08:44.236Z,4
2016-07-17T04:09:44.232Z,4
2016-07-17T04:10:44.240Z,4
2016-07-17T04:11:44.232Z,4
2016-07-17T04:12:43.700Z,8
2016-07-17T04:13:44.232Z,8
2016-07-17T04:14:44.231Z,4
2016-07-17T04:15:44.233Z,8
2016-07-17T04:16:44.231Z,8
2016-07-17T04:17:44.232Z,8
2016-07-17T04:18:44.228Z,8
2016-07-17T04:19:44.236Z,8
2016-07-17T04:20:43.504Z,8
2016-07-17T04:21:44.228Z,12
2016-07-17T04:22:44.229Z,8
2016-07-17T04:23:44.224Z,12
2016-07-17T04:24:44.229Z,12
2016-07-17T04:25:44.228Z,12
2016-07-17T04:26:44.223Z,12
2016-07-17T04:27:44.225Z,16
2016-07-17T04:28:44.224Z,12
2016-07-17T04:29:44.229Z,16
2016-07-17T04:30:44.224Z,16
2016-07-17T04:31:44.224Z,16
2016-07-17T04:32:44.237Z,16
2016-07-17T04:33:44.224Z,20
2016-07-17T04:34:43.501Z,20
2016-07-17T04:35:44.221Z,20
2016-07-17T04:36:44.233Z,24
2016-07-17T04:37:44.225Z,24
2016-07-17T04:38:44.221Z,24
2016-07-17T04:39:44.221Z,28
2016-07-17T04:40:44.220Z,28
2016-07-17T04:41:44.221Z,28
2016-07-17T04:42:44.213Z,28
2016-07-17T04:43:44.217Z,32
2016-07-17T04:44:44.217Z,28
2016-07-17T04:45:44.229Z,32
2016-07-17T04:46:44.217Z,32
2016-07-17T04:47:44.212Z,32
2016-07-17T04:48:44.221Z,36
2016-07-17T04:49:44.217Z,40
2016-07-17T04:50:44.213Z,44
2016-07-17T04:51:43.494Z,52
2016-07-17T04:52:44.225Z,76
2016-07-17T04:53:44.214Z,212
2016-07-17T04:54:44.213Z,60
2016-07-17T04:55:44.213Z,56
2016-07-17T04:56:44.209Z,56
2016-07-17T04:57:44.213Z,52
2016-07-17T04:58:44.208Z,56
2016-07-17T04:59:44.201Z,60
2016-07-17T05:00:44.205Z,64
2016-07-17T05:01:44.221Z,64
2016-07-17T05:02:44.201Z,68
2016-07-17T05:03:44.214Z,72
2016-07-17T05:04:44.209Z,72
2016-07-17T05:05:44.205Z,68
2016-07-17T05:06:44.206Z,76
2016-07-17T05:07:44.205Z,96
2016-07-17T05:08:44.210Z,112
2016-07-17T05:09:44.207Z,84
2016-07-17T05:10:44.202Z,80
2016-07-17T05:11:44.206Z,80
2016-07-17T05:12:44.203Z,88
2016-07-17T05:13:44.205Z,88
2016-07-17T05:14:44.202Z,84
2016-07-17T05:15:44.206Z,88
2016-07-17T05:16:44.197Z,124
2016-07-17T05:17:44.207Z,100
2016-07-17T05:18:44.197Z,104
2016-07-17T05:19:44.198Z,112
2016-07-17T05:20:44.202Z,120
2016-07-17T05:21:43.478Z,112
2016-07-17T05:22:44.202Z,116
2016-07-17T05:23:44.218Z,120
2016-07-17T05:24:44.198Z,196
2016-07-17T05:25:43.474Z,140
2016-07-17T05:26:44.199Z,140
2016-07-17T05:27:43.474Z,212
2016-07-17T05:28:44.198Z,164
2016-07-17T05:29:44.198Z,184
2016-07-17T05:30:44.214Z,144
2016-07-17T05:31:44.202Z,148
2016-07-17T05:32:44.198Z,292
2016-07-17T05:33:44.199Z,148
2016-07-17T05:34:44.198Z,132
2016-07-17T05:35:44.194Z,144
2016-07-17T05:36:44.203Z,168
2016-07-17T05:37:44.202Z,224
2016-07-17T05:38:44.194Z,308
2016-07-17T05:39:44.207Z,296
2016-07-17T05:40:44.194Z,256
2016-07-17T05:41:44.195Z,224
2016-07-17T05:42:44.243Z,152
2016-07-17T05:43:44.194Z,168
2016-07-17T05:44:44.195Z,328
2016-07-17T05:45:44.190Z,464
2016-07-17T05:46:43.471Z,432
2016-07-17T05:47:44.191Z,320
2016-07-17T05:48:44.186Z,236
2016-07-17T05:49:44.192Z,232
2016-07-17T05:50:44.190Z,348
2016-07-17T05:51:44.190Z,424
2016-07-17T05:52:44.191Z,144
2016-07-17T05:53:44.190Z,132
2016-07-17T05:54:44.183Z,164
2016-07-17T05:55:43.466Z,152
2016-07-17T05:56:44.191Z,140
2016-07-17T05:57:44.191Z,136
2016-07-17T05:58:44.191Z,136
2016-07-17T05:59:44.191Z,132
2016-07-17T06:00:44.191Z,140
2016-07-17T06:01:44.187Z,144
2016-07-17T06:02:44.191Z,144
2016-07-17T06:03:44.187Z,152
2016-07-17T06:04:44.187Z,176
2016-07-17T06:05:44.187Z,152
2016-07-17T06:06:44.188Z,168
2016-07-17T06:07:44.187Z,232
2016-07-17T06:08:44.187Z,200
2016-07-17T06:09:44.183Z,152
2016-07-17T06:10:44.200Z,164
2016-07-17T06:11:43.468Z,156
2016-07-17T06:12:44.187Z,164
2016-07-17T06:13:44.187Z,144
2016-07-17T06:14:44.183Z,148
2016-07-17T06:15:44.188Z,140
2016-07-17T06:16:44.187Z,136
2016-07-17T06:17:44.187Z,132
2016-07-17T06:18:44.187Z,144
2016-07-17T06:19:44.187Z,248
2016-07-17T06:20:44.187Z,364
2016-07-17T06:21:44.188Z,212
2016-07-17T06:22:44.188Z,200
2016-07-17T06:23:44.184Z,276
2016-07-17T06:24:44.189Z,244
2016-07-17T06:25:44.188Z,168
2016-07-17T06:26:44.188Z,172
2016-07-17T06:27:44.188Z,204
2016-07-17T06:28:43.469Z,280
2016-07-17T06:29:44.184Z,428
2016-07-17T06:30:44.201Z,304
2016-07-17T06:31:44.188Z,208
2016-07-17T06:32:44.188Z,528
2016-07-17T06:33:44.192Z,416
2016-07-17T06:34:44.180Z,236
2016-07-17T06:35:44.189Z,384
2016-07-17T06:36:44.189Z,476
2016-07-17T06:37:44.188Z,428
2016-07-17T06:38:44.188Z,476
2016-07-17T06:39:44.188Z,472
2016-07-17T06:40:44.189Z,464
2016-07-17T06:41:44.188Z,460
2016-07-17T06:42:44.189Z,452
2016-07-17T06:43:44.190Z,452
2016-07-17T06:44:44.188Z,452
2016-07-17T06:45:44.189Z,448
2016-07-17T06:46:44.193Z,444
2016-07-17T06:47:44.189Z,448
2016-07-17T06:48:44.184Z,440
2016-07-17T06:49:44.202Z,436
2016-07-17T06:50:44.189Z,432
2016-07-17T06:51:44.189Z,432
2016-07-17T06:52:44.194Z,432
2016-07-17T06:53:44.193Z,428
2016-07-17T06:54:44.190Z,428
2016-07-17T06:55:44.193Z,428
2016-07-17T06:56:44.194Z,424
2016-07-17T06:57:44.193Z,424
2016-07-17T06:58:44.197Z,420
2016-07-17T06:59:44.193Z,420
2016-07-17T07:00:44.197Z,420
2016-07-17T07:01:44.193Z,416
2016-07-17T07:02:44.190Z,416
2016-07-17T07:03:44.194Z,412
2016-07-17T07:04:44.190Z,408
2016-07-17T07:05:44.194Z,408
2016-07-17T07:06:44.198Z,408
2016-07-17T07:07:44.194Z,408
2016-07-17T07:08:44.191Z,404
2016-07-17T07:09:44.199Z,404
2016-07-17T07:10:44.198Z,400
2016-07-17T07:11:44.198Z,400
2016-07-17T07:12:44.194Z,400
2016-07-17T07:13:44.193Z,400
2016-07-17T07:14:44.203Z,396
2016-07-17T07:15:44.203Z,392
2016-07-17T07:16:44.197Z,392
2016-07-17T07:17:44.202Z,396
2016-07-17T07:18:44.202Z,392
2016-07-17T07:19:44.203Z,388
2016-07-17T07:20:44.203Z,388
2016-07-17T07:21:44.202Z,388
2016-07-17T07:22:44.211Z,384
2016-07-17T07:23:44.202Z,384
2016-07-17T07:24:44.207Z,384
2016-07-17T07:25:43.483Z,380
2016-07-17T07:26:44.207Z,384
2016-07-17T07:27:44.223Z,380
2016-07-17T07:28:44.210Z,380
2016-07-17T07:29:44.210Z,380
2016-07-17T07:30:44.211Z,380
2016-07-17T07:31:43.491Z,376
2016-07-17T07:32:44.210Z,372
2016-07-17T07:33:44.215Z,372
2016-07-17T07:34:44.210Z,372
2016-07-17T07:35:44.217Z,372
2016-07-17T07:36:44.215Z,368
2016-07-17T07:37:44.214Z,368
2016-07-17T07:38:44.215Z,368
2016-07-17T07:39:44.215Z,368
2016-07-17T07:40:44.219Z,368
2016-07-17T07:41:44.219Z,364
2016-07-17T07:42:44.319Z,364
2016-07-17T07:43:44.215Z,364
2016-07-17T07:44:44.223Z,364
2016-07-17T07:45:44.223Z,364
2016-07-17T07:46:44.223Z,360
2016-07-17T07:47:44.219Z,356
2016-07-17T07:48:44.224Z,356
2016-07-17T07:49:44.219Z,356
2016-07-17T07:50:44.227Z,356
2016-07-17T07:51:44.227Z,352
2016-07-17T07:52:44.227Z,352
2016-07-17T07:53:44.227Z,352
2016-07-17T07:54:44.232Z,348
2016-07-17T07:55:43.511Z,348
2016-07-17T07:56:44.232Z,352
2016-07-17T07:57:44.231Z,352
2016-07-17T07:58:44.236Z,352
2016-07-17T07:59:44.235Z,348
2016-07-17T08:00:44.237Z,344
2016-07-17T08:01:44.236Z,348
2016-07-17T08:02:44.236Z,348
2016-07-17T08:03:44.240Z,348
2016-07-17T08:04:44.240Z,344
2016-07-17T08:05:44.242Z,348
2016-07-17T08:06:44.241Z,344
2016-07-17T08:07:44.240Z,344
2016-07-17T08:08:44.244Z,344
2016-07-17T08:09:44.245Z,340
2016-07-17T08:10:44.243Z,344
2016-07-17T08:11:44.241Z,340
2016-07-17T08:12:44.251Z,340
2016-07-17T08:13:44.249Z,340
2016-07-17T08:14:44.252Z,340
2016-07-17T08:15:44.244Z,340
2016-07-17T08:16:44.253Z,340
2016-07-17T08:17:44.252Z,336
2016-07-17T08:18:44.260Z,336
2016-07-17T08:19:44.252Z,336
2016-07-17T08:20:44.247Z,336
2016-07-17T08:21:44.256Z,336
2016-07-17T08:22:44.256Z,332
2016-07-17T08:23:44.260Z,332
2016-07-17T08:24:44.260Z,332
2016-07-17T08:25:44.260Z,332
2016-07-17T08:26:44.261Z,328
2016-07-17T08:27:44.265Z,328
2016-07-17T08:28:44.265Z,328
2016-07-17T08:29:44.269Z,324
2016-07-17T08:30:43.548Z,324
2016-07-17T08:31:44.268Z,324
2016-07-17T08:32:44.268Z,320
2016-07-17T08:33:44.280Z,320
2016-07-17T08:34:44.272Z,320
2016-07-17T08:35:44.272Z,316
2016-07-17T08:36:44.283Z,316
2016-07-17T08:37:44.287Z,316
2016-07-17T08:38:44.288Z,316
2016-07-17T08:39:44.276Z,312
2016-07-17T08:40:44.285Z,312
2016-07-17T08:41:44.281Z,312
2016-07-17T08:42:44.281Z,308
2016-07-17T08:43:44.285Z,308
2016-07-17T08:44:44.289Z,304
2016-07-17T08:45:44.280Z,308
2016-07-17T08:46:44.289Z,308
2016-07-17T08:47:44.293Z,300
2016-07-17T08:48:44.292Z,304
2016-07-17T08:49:44.289Z,304
2016-07-17T08:50:44.292Z,304
2016-07-17T08:51:44.293Z,300
2016-07-17T08:52:44.293Z,300
2016-07-17T08:53:44.300Z,300
2016-07-17T08:54:44.296Z,300
2016-07-17T08:55:44.297Z,296
2016-07-17T08:56:44.301Z,296
2016-07-17T08:57:44.300Z,296
2016-07-17T08:58:44.301Z,296
2016-07-17T08:59:44.300Z,296
2016-07-17T09:00:44.308Z,292
2016-07-17T09:01:44.305Z,292
2016-07-17T09:02:44.309Z,292
2016-07-17T09:03:44.300Z,292
2016-07-17T09:04:44.317Z,292
2016-07-17T09:05:44.306Z,288
2016-07-17T09:06:44.313Z,288
2016-07-17T09:07:44.317Z,288
2016-07-17T09:08:44.326Z,284
2016-07-17T09:09:44.317Z,284
2016-07-17T09:10:44.317Z,284
2016-07-17T09:11:44.321Z,280
2016-07-17T09:12:44.316Z,280
2016-07-17T09:13:44.321Z,276
2016-07-17T09:14:44.321Z,280
2016-07-17T09:15:44.325Z,276
2016-07-17T09:16:44.330Z,276
2016-07-17T09:17:44.329Z,276
2016-07-17T09:18:44.338Z,272
2016-07-17T09:19:44.345Z,272
2016-07-17T09:20:44.338Z,268
2016-07-17T09:21:44.334Z,264
2016-07-17T09:22:44.338Z,264
2016-07-17T09:23:43.621Z,264
2016-07-17T09:24:44.338Z,264
2016-07-17T09:25:44.366Z,260
2016-07-17T09:26:44.642Z,264
2016-07-17T09:27:44.358Z,260
2016-07-17T09:28:44.345Z,260
2016-07-17T09:29:44.345Z,256
2016-07-17T09:30:44.359Z,260
2016-07-17T09:31:43.630Z,256
2016-07-17T09:32:44.350Z,252
2016-07-17T09:33:44.354Z,252
2016-07-17T09:34:44.353Z,252
2016-07-17T09:35:44.355Z,248
2016-07-17T09:36:44.357Z,248
2016-07-17T09:37:44.359Z,248
2016-07-17T09:38:44.358Z,244
2016-07-17T09:39:44.363Z,244
2016-07-17T09:40:44.363Z,240
2016-07-17T09:41:44.366Z,236
2016-07-17T09:42:44.467Z,228
2016-07-17T09:43:44.382Z,224
2016-07-17T09:44:44.371Z,216
2016-07-17T09:45:44.370Z,212
2016-07-17T09:46:44.375Z,208
2016-07-17T09:47:44.375Z,204
2016-07-17T09:48:44.379Z,200
2016-07-17T09:49:44.378Z,192
2016-07-17T09:50:44.378Z,192
2016-07-17T09:51:44.383Z,184
2016-07-17T09:52:44.382Z,180
2016-07-17T09:53:44.386Z,176
2016-07-17T09:54:44.386Z,172
2016-07-17T09:55:44.386Z,172
2016-07-17T09:56:44.391Z,172
2016-07-17T09:57:44.391Z,172
2016-07-17T09:58:43.672Z,172
2016-07-17T09:59:44.394Z,172
2016-07-17T10:00:44.395Z,168
2016-07-17T10:01:44.399Z,172
2016-07-17T10:02:44.400Z,172
2016-07-17T10:03:44.402Z,176
2016-07-17T10:04:44.403Z,172
2016-07-17T10:05:44.402Z,172
2016-07-17T10:06:44.406Z,172
2016-07-17T10:07:44.407Z,176
2016-07-17T10:08:44.407Z,172
2016-07-17T10:09:44.418Z,176
2016-07-17T10:10:44.410Z,176
2016-07-17T10:11:44.415Z,176
2016-07-17T10:12:44.414Z,172
2016-07-17T10:13:44.415Z,172
2016-07-17T10:14:44.414Z,176
2016-07-17T10:15:44.427Z,172
2016-07-17T10:16:44.422Z,176
2016-07-17T10:17:44.427Z,176
2016-07-17T10:18:44.778Z,176
2016-07-17T10:19:44.427Z,176
2016-07-17T10:20:44.430Z,172
2016-07-17T10:21:44.430Z,176
2016-07-17T10:22:44.431Z,176
2016-07-17T10:23:44.435Z,176
2016-07-17T10:24:43.715Z,176
2016-07-17T10:25:44.439Z,176
2016-07-17T10:26:44.440Z,176
2016-07-17T10:27:44.439Z,176
2016-07-17T10:28:43.724Z,176
2016-07-17T10:29:44.444Z,176
2016-07-17T10:30:44.451Z,176
2016-07-17T10:31:44.448Z,176
2016-07-17T10:32:44.448Z,176
2016-07-17T10:33:44.452Z,176
2016-07-17T10:34:44.452Z,176
2016-07-17T10:35:44.456Z,176
2016-07-17T10:36:44.456Z,176
2016-07-17T10:37:44.460Z,176
2016-07-17T10:38:44.460Z,176
2016-07-17T10:39:44.456Z,176
2016-07-17T10:40:44.464Z,176
2016-07-17T10:41:44.465Z,172
2016-07-17T10:42:44.477Z,172
2016-07-17T10:43:44.468Z,176
2016-07-17T10:44:43.756Z,176
2016-07-17T10:45:44.474Z,180
2016-07-17T10:46:44.469Z,180
2016-07-17T10:47:44.477Z,180
2016-07-17T10:48:44.477Z,180
2016-07-17T10:49:44.481Z,180
2016-07-17T10:50:44.484Z,180
2016-07-17T10:51:44.482Z,180
2016-07-17T10:52:44.485Z,176
2016-07-17T10:53:44.485Z,176
2016-07-17T10:54:44.489Z,176
2016-07-17T10:55:44.503Z,176
2016-07-17T10:56:44.489Z,176
2016-07-17T10:57:44.489Z,180
2016-07-17T10:58:43.053Z,176
2016-07-17T10:59:44.496Z,176
2016-07-17T11:00:44.497Z,176
2016-07-17T11:01:44.502Z,172
2016-07-17T11:02:44.501Z,180
2016-07-17T11:03:44.502Z,180
2016-07-17T11:04:44.509Z,180
2016-07-17T11:05:44.509Z,180
2016-07-17T11:06:44.513Z,180
2016-07-17T11:07:44.509Z,180
2016-07-17T11:08:44.514Z,176
2016-07-17T11:09:44.517Z,180
2016-07-17T11:10:44.913Z,176
2016-07-17T11:11:44.518Z,180
2016-07-17T11:12:44.517Z,180
2016-07-17T11:13:44.517Z,180
2016-07-17T11:14:44.521Z,180
2016-07-17T11:15:44.521Z,180
2016-07-17T11:16:43.805Z,180
2016-07-17T11:17:43.806Z,180
2016-07-17T11:18:44.529Z,176
2016-07-17T11:19:44.530Z,180
2016-07-17T11:20:44.533Z,176
2016-07-17T11:21:44.537Z,176
2016-07-17T11:22:44.545Z,176
2016-07-17T11:23:44.541Z,180
2016-07-17T11:24:44.537Z,176
2016-07-17T11:25:44.542Z,176
2016-07-17T11:26:44.541Z,176
2016-07-17T11:27:43.830Z,176
2016-07-17T11:28:44.545Z,172
2016-07-17T11:29:44.545Z,176
2016-07-17T11:30:44.549Z,172
2016-07-17T11:31:44.550Z,176
2016-07-17T11:32:44.545Z,172
2016-07-17T11:33:44.555Z,172
2016-07-17T11:34:44.553Z,176
2016-07-17T11:35:44.564Z,172
2016-07-17T11:36:44.558Z,172
2016-07-17T11:37:43.858Z,172
2016-07-17T11:38:44.558Z,168
2016-07-17T11:39:44.566Z,168
2016-07-17T11:40:44.566Z,172
2016-07-17T11:41:44.567Z,168
2016-07-17T11:42:44.618Z,168
2016-07-17T11:43:44.575Z,168
2016-07-17T11:44:44.575Z,168
2016-07-17T11:45:44.569Z,168
2016-07-17T11:46:44.590Z,168
2016-07-17T11:47:44.583Z,164
2016-07-17T11:48:44.584Z,168
2016-07-17T11:49:44.631Z,168
2016-07-17T11:50:44.583Z,164
2016-07-17T11:51:44.583Z,164
2016-07-17T11:52:44.586Z,164
2016-07-17T11:53:44.587Z,160
2016-07-17T11:54:44.597Z,160
2016-07-17T11:55:44.591Z,164
2016-07-17T11:56:44.595Z,160
2016-07-17T11:57:44.595Z,160
2016-07-17T11:58:44.599Z,160
2016-07-17T11:59:44.598Z,156
2016-07-17T12:00:44.599Z,160
2016-07-17T12:01:44.602Z,156
2016-07-17T12:02:44.603Z,160
2016-07-17T12:03:44.619Z,160
2016-07-17T12:04:44.607Z,156
2016-07-17T12:05:44.607Z,156
2016-07-17T12:06:44.610Z,156
2016-07-17T12:07:44.611Z,152
2016-07-17T12:08:44.615Z,152
2016-07-17T12:09:44.614Z,152
2016-07-17T12:10:44.615Z,152
2016-07-17T12:11:44.618Z,148
2016-07-17T12:12:44.619Z,152
2016-07-17T12:13:44.623Z,148
2016-07-17T12:14:44.623Z,148
2016-07-17T12:15:44.626Z,148
2016-07-17T12:16:44.627Z,148
2016-07-17T12:17:44.631Z,148
2016-07-17T12:18:44.632Z,144
2016-07-17T12:19:44.635Z,144
2016-07-17T12:20:44.635Z,144
2016-07-17T12:21:44.635Z,144
2016-07-17T12:22:44.639Z,140
2016-07-17T12:23:44.639Z,140
2016-07-17T12:24:44.643Z,136
2016-07-17T12:25:44.651Z,140
2016-07-17T12:26:44.644Z,140
2016-07-17T12:27:44.639Z,136
2016-07-17T12:28:44.648Z,136
2016-07-17T12:29:44.651Z,140
2016-07-17T12:30:43.935Z,136
2016-07-17T12:31:44.651Z,136
2016-07-17T12:32:44.660Z,136
2016-07-17T12:33:44.659Z,132
2016-07-17T12:34:44.659Z,136
2016-07-17T12:35:44.660Z,132
2016-07-17T12:36:44.663Z,132
2016-07-17T12:37:44.664Z,132
2016-07-17T12:38:44.668Z,128
2016-07-17T12:39:43.948Z,132
2016-07-17T12:40:44.667Z,128
2016-07-17T12:41:44.676Z,132
2016-07-17T12:42:44.672Z,128
2016-07-17T12:43:44.677Z,128
2016-07-17T12:44:44.676Z,128
2016-07-17T12:45:44.675Z,128
2016-07-17T12:46:44.680Z,128
2016-07-17T12:47:44.679Z,124
2016-07-17T12:48:44.684Z,128
2016-07-17T12:49:44.687Z,124
2016-07-17T12:50:44.684Z,128
2016-07-17T12:51:44.688Z,124
2016-07-17T12:52:44.688Z,124
2016-07-17T12:53:44.692Z,120
2016-07-17T12:54:44.692Z,124
2016-07-17T12:55:44.697Z,120
2016-07-17T12:56:44.697Z,120
2016-07-17T12:57:43.988Z,120
2016-07-17T12:58:44.701Z,120
2016-07-17T12:59:44.696Z,120
2016-07-17T13:00:44.704Z,120
2016-07-17T13:01:44.709Z,116
2016-07-17T13:02:44.721Z,120
2016-07-17T13:03:44.708Z,116
2016-07-17T13:04:44.708Z,116
2016-07-17T13:05:44.712Z,116
2016-07-17T13:06:44.712Z,116
2016-07-17T13:07:44.712Z,112
2016-07-17T13:08:44.716Z,112
2016-07-17T13:09:44.720Z,116
2016-07-17T13:10:44.730Z,112
2016-07-17T13:11:44.720Z,112
2016-07-17T13:12:44.729Z,112
2016-07-17T13:13:44.724Z,112
2016-07-17T13:14:44.008Z,112
2016-07-17T13:15:44.728Z,108
2016-07-17T13:16:44.733Z,108
2016-07-17T13:17:44.741Z,112
2016-07-17T13:18:44.732Z,112
2016-07-17T13:19:44.736Z,108
2016-07-17T13:20:44.736Z,108
2016-07-17T13:21:44.742Z,108
2016-07-17T13:22:44.736Z,108
2016-07-17T13:23:44.741Z,108
2016-07-17T13:24:44.748Z,108
2016-07-17T13:25:44.757Z,104
2016-07-17T13:26:44.748Z,108
2016-07-17T13:27:44.748Z,108
2016-07-17T13:28:44.753Z,108
2016-07-17T13:29:44.752Z,104
2016-07-17T13:30:44.753Z,104
2016-07-17T13:31:44.752Z,104
2016-07-17T13:32:44.757Z,104
2016-07-17T13:33:44.765Z,104
2016-07-17T13:34:44.760Z,104
2016-07-17T13:35:44.765Z,100
2016-07-17T13:36:44.765Z,100
2016-07-17T13:37:44.765Z,100
2016-07-17T13:38:44.769Z,100
2016-07-17T13:39:44.765Z,104
2016-07-17T13:40:44.774Z,104
2016-07-17T13:41:44.772Z,100
2016-07-17T13:42:44.873Z,100
2016-07-17T13:43:44.780Z,104
2016-07-17T13:44:44.777Z,104
2016-07-17T13:45:44.780Z,104
2016-07-17T13:46:44.781Z,100
2016-07-17T13:47:44.786Z,104
2016-07-17T13:48:44.791Z,104
2016-07-17T13:49:44.789Z,104
2016-07-17T13:50:44.788Z,100
2016-07-17T13:51:44.790Z,100
2016-07-17T13:52:44.797Z,96
2016-07-17T13:53:44.793Z,100
2016-07-17T13:54:44.801Z,96
2016-07-17T13:55:44.798Z,96
2016-07-17T13:56:44.813Z,92
2016-07-17T13:57:44.801Z,92
2016-07-17T13:58:44.805Z,96
2016-07-17T13:59:44.805Z,96
2016-07-17T14:00:44.806Z,92
2016-07-17T14:01:44.810Z,92
2016-07-17T14:02:44.809Z,92
2016-07-17T14:03:44.819Z,92
2016-07-17T14:04:44.813Z,92
2016-07-17T14:05:44.818Z,92
2016-07-17T14:06:44.817Z,92